Time;durP1;ratioP1;P1;durP2;ratioP2;P2;SDS_P1;SDS_P2;PMS_P1;PMS_P2;Temp;Humidity;BMP_temperature;BMP_pressure;BME280_temperature;BME280_humidity;BME280_pressure;Samples;Min_cycle;Max_cycle;Signal;HPM_P1;HPM_P2
2022/08/14 00:02:15;;;;;;;15.73;14.23;;;20.20;99.90;;;-141.84;67.14;21196.09;5030302;28;20226;-65
2022/08/14 00:04:44;;;;;;;15.32;13.98;;;20.10;99.90;;;-141.84;67.35;21187.97;5030502;28;20237;-64
2022/08/14 00:07:13;;;;;;;16.33;14.82;;;20.10;99.90;;;-141.84;67.21;21143.22;5030465;28;20313;-64
2022/08/14 00:09:42;;;;;;;16.88;15.38;;;20.00;99.90;;;-141.84;66.30;21216.41;5030462;28;20202;-64
2022/08/14 00:12:35;;;;;;;15.98;14.57;;;20.20;99.90;;;-141.84;66.64;21200.16;5030598;28;20205;-65
2022/08/14 00:15:28;;;;;;;15.68;14.13;;;20.10;99.90;;;-141.84;66.90;21177.78;5030657;28;20222;-63
2022/08/14 00:18:07;;;;;;;15.82;14.43;;;20.20;99.90;;;-141.84;67.40;21175.75;5030090;28;20725;-64
2022/08/14 00:20:43;;;;;;;15.48;13.98;;;20.00;99.90;;;-141.84;67.87;21114.75;5029991;28;20604;-63
2022/08/14 00:23:16;;;;;;;13.73;12.40;;;20.00;99.90;;;-141.84;68.06;21129.00;5030476;28;20229;-65
2022/08/14 00:25:51;;;;;;;15.07;13.77;;;20.00;99.90;;;-141.84;68.26;21114.75;5030397;28;20225;-64
2022/08/14 00:28:34;;;;;;;15.02;13.73;;;19.90;99.90;;;-141.84;67.89;21106.63;5030204;28;20218;-65
2022/08/14 00:31:06;;;;;;;15.15;13.85;;;19.90;99.90;;;-141.84;68.13;21106.63;5030404;28;20352;-64
2022/08/14 00:33:37;;;;;;;15.60;14.00;;;19.80;99.90;;;-141.84;68.20;21088.34;5030288;28;20623;-66
2022/08/14 00:36:21;;;;;;;14.07;12.88;;;19.80;99.90;;;-141.84;68.47;21131.03;5030405;28;20623;-64
2022/08/14 00:39:13;;;;;;;14.90;13.60;;;19.80;99.90;;;-141.84;68.33;21122.91;5030150;28;20226;-64
2022/08/14 00:41:45;;;;;;;14.45;13.13;;;19.80;99.90;;;-141.84;68.05;21131.03;5029947;28;20701;-64
2022/08/14 00:44:15;;;;;;;14.50;13.20;;;19.80;99.90;;;-141.84;67.73;21135.09;5030237;28;20291;-64
2022/08/14 00:47:00;;;;;;;13.98;12.77;;;19.80;99.90;;;-141.84;67.77;21129.00;5029888;28;20228;-64
2022/08/14 00:49:31;;;;;;;14.15;12.90;;;19.90;99.90;;;-141.84;68.02;21124.94;5029975;28;20237;-63
2022/08/14 00:52:12;;;;;;;14.68;13.30;;;19.80;99.90;;;-141.84;68.03;21135.09;5030315;28;20234;-64
2022/08/14 00:54:42;;;;;;;14.30;13.10;;;19.80;99.90;;;-141.84;68.24;21131.03;5030297;28;20182;-67
2022/08/14 00:57:13;;;;;;;14.65;13.45;;;19.80;99.90;;;-141.84;68.22;21090.38;5030306;28;20188;-65
2022/08/14 00:59:42;;;;;;;15.48;14.07;;;19.80;99.90;;;-141.84;67.54;21145.25;5029996;28;20788;-64
2022/08/14 01:02:12;;;;;;;16.67;15.18;;;19.80;99.90;;;-141.84;66.93;21171.69;5029699;28;20322;-64
2022/08/14 01:04:43;;;;;;;16.65;15.15;;;19.80;99.90;;;-141.84;66.78;21163.56;5030221;28;20308;-63
2022/08/14 01:07:23;;;;;;;15.75;14.35;;;19.90;99.90;;;-141.84;66.97;21139.16;5030221;28;20221;-64
2022/08/14 01:10:00;;;;;;;15.55;14.18;;;19.80;99.90;;;-141.84;67.24;21165.59;5030062;28;20233;-64
2022/08/14 01:12:29;;;;;;;17.48;15.80;;;19.80;99.90;;;-141.84;67.44;21165.59;5030433;28;20221;-64
2022/08/14 01:15:01;;;;;;;16.48;14.98;;;19.70;99.90;;;-141.84;67.85;21090.38;5029864;28;20309;-63
2022/08/14 01:23:11;;;;;;;15.70;14.30;;;19.60;99.90;;;-141.84;68.85;21068.00;5029589;28;20234;-64
2022/08/14 01:25:47;;;;;;;15.43;14.02;;;19.50;99.90;;;-141.84;69.23;21043.59;5031876;28;20313;-64
2022/08/14 01:28:16;;;;;;;15.38;14.18;;;19.40;99.90;;;-141.84;69.33;21059.88;5033532;28;20249;-63
2022/08/14 01:31:11;;;;;;;15.57;14.18;;;19.30;99.90;;;-141.84;69.71;21045.63;5033619;28;20226;-64
2022/08/14 01:33:43;;;;;;;17.00;15.55;;;19.30;99.90;;;-141.84;70.08;21019.22;5033606;28;20217;-64
2022/08/14 01:36:35;;;;;;;16.15;14.65;;;19.20;99.90;;;-141.84;70.43;21013.13;5033475;28;20214;-64
2022/08/14 01:39:10;;;;;;;16.63;15.15;;;19.20;99.90;;;-141.84;70.62;21025.31;5033340;28;20232;-64
2022/08/14 01:41:43;;;;;;;16.00;14.63;;;19.10;99.90;;;-141.84;70.80;20960.25;5032823;28;20296;-63
2022/08/14 01:44:15;;;;;;;16.13;14.73;;;19.10;99.90;;;-141.84;71.02;20958.22;5033119;28;20321;-64
2022/08/14 01:47:11;;;;;;;16.83;15.32;;;19.10;99.90;;;-141.84;70.91;20988.72;5032842;28;20321;-63
2022/08/14 01:49:50;;;;;;;16.30;14.80;;;19.10;99.90;;;-141.84;70.88;20956.19;5032521;28;20233;-66
2022/08/14 01:52:35;;;;;;;16.50;15.10;;;19.10;99.90;;;-141.84;70.69;20978.56;5032809;28;20241;-66
2022/08/14 01:55:30;;;;;;;16.20;14.68;;;19.10;99.90;;;-141.84;71.20;20944.00;5033012;28;20221;-64
2022/08/14 01:58:00;;;;;;;15.48;14.18;;;19.00;99.90;;;-141.84;70.99;20974.50;5032820;28;20208;-65
2022/08/14 02:00:52;;;;;;;16.17;14.82;;;19.00;99.90;;;-141.84;70.53;20964.31;5032995;28;20226;-65
2022/08/14 02:03:23;;;;;;;16.52;15.02;;;19.10;99.90;;;-141.84;70.58;20980.59;5032760;28;20206;-64
2022/08/14 02:05:58;;;;;;;16.70;15.13;;;19.10;99.90;;;-141.84;71.15;20968.38;5032677;28;20228;-63
2022/08/14 02:08:36;;;;;;;15.93;14.50;;;19.00;99.90;;;-141.84;71.25;20964.31;5032804;28;20244;-63
2022/08/14 02:11:24;;;;;;;16.52;15.13;;;19.00;99.90;;;-141.84;70.79;21009.03;5032418;28;20229;-63
2022/08/14 02:13:58;;;;;;;16.90;15.30;;;19.00;99.90;;;-141.84;70.22;21027.34;5032468;28;20308;-64
2022/08/14 02:16:38;;;;;;;16.40;14.88;;;19.10;99.90;;;-141.84;70.33;21002.94;5032336;28;20221;-63
2022/08/14 02:19:11;;;;;;;15.98;14.50;;;19.10;99.90;;;-141.84;70.80;20992.78;5032160;28;20279;-63
2022/08/14 02:21:40;;;;;;;16.90;15.20;;;19.10;99.90;;;-141.84;71.49;20962.28;5032848;28;20226;-63
2022/08/14 02:24:15;;;;;;;16.92;15.38;;;19.00;99.90;;;-141.84;71.29;20958.22;5032480;28;20259;-64
2022/08/14 02:27:05;;;;;;;17.45;15.90;;;18.90;99.90;;;-141.84;71.50;20960.25;5031956;28;20244;-66
2022/08/14 02:29:55;;;;;;;16.30;14.80;;;18.90;99.90;;;-141.84;71.64;20919.59;5031967;28;20222;-64
2022/08/14 02:32:30;;;;;;;16.90;15.32;;;18.90;99.90;;;-141.84;71.85;20931.78;5032053;28;20301;-64
2022/08/14 02:35:16;;;;;;;17.35;15.77;;;18.80;99.90;;;-141.84;72.26;20929.75;5032007;28;20239;-64
2022/08/14 02:37:45;;;;;;;16.63;15.23;;;18.80;99.90;;;-141.84;72.33;20925.69;5030994;28;20596;-63
2022/08/14 02:40:17;;;;;;;17.52;15.77;;;18.80;99.90;;;-141.84;72.22;20937.91;5032022;28;20230;-64
2022/08/14 02:42:47;;;;;;;17.02;15.52;;;18.80;99.90;;;-141.84;72.20;20931.78;5032147;28;20249;-64
2022/08/14 02:45:32;;;;;;;17.02;15.32;;;18.80;99.90;;;-141.84;72.13;20929.75;5032168;28;20183;-65
2022/08/14 02:48:09;;;;;;;16.60;15.10;;;18.70;99.90;;;-141.84;71.87;20935.88;5031722;28;20221;-62
2022/08/14 02:50:58;;;;;;;16.02;14.65;;;18.80;99.90;;;-141.84;72.21;20917.56;5031456;28;20230;-64
2022/08/14 02:53:28;;;;;;;15.10;13.82;;;18.70;99.90;;;-141.84;72.41;20913.50;5031432;28;20317;-65
2022/08/14 02:55:59;;;;;;;16.50;15.10;;;18.70;99.90;;;-141.84;72.10;20968.38;5031832;28;20222;-64
2022/08/14 02:58:51;;;;;;;16.83;15.32;;;18.70;99.90;;;-141.84;71.84;20901.31;5031502;28;20241;-64
2022/08/14 03:01:26;;;;;;;15.93;14.52;;;18.80;99.90;;;-141.84;71.99;20899.28;5031367;28;20226;-64
2022/08/14 03:04:15;;;;;;;15.98;14.57;;;18.80;99.90;;;-141.84;72.35;20885.03;5031234;28;20226;-64
2022/08/14 03:06:46;;;;;;;16.52;14.93;;;18.70;99.90;;;-141.84;72.36;20950.09;5031405;28;20213;-64
2022/08/14 03:09:26;;;;;;;17.60;15.77;;;18.80;99.90;;;-141.84;72.71;20907.41;5031929;28;20210;-65
2022/08/14 03:12:14;;;;;;;16.88;15.35;;;18.70;99.90;;;-141.84;72.42;20927.72;5031540;28;20221;-64
2022/08/14 03:15:08;;;;;;;17.05;15.45;;;18.70;99.90;;;-141.84;72.33;20946.03;5031071;28;20232;-64
2022/08/14 03:17:43;;;;;;;17.80;16.05;;;18.70;99.90;;;-141.84;72.80;20915.53;5030972;28;20228;-63
2022/08/14 03:20:27;;;;;;;17.13;15.63;;;18.70;99.90;;;-141.84;73.22;20913.50;5030633;28;20237;-64
2022/08/14 03:22:58;;;;;;;19.13;17.38;;;18.70;99.90;;;-141.84;73.03;20921.63;5030980;28;20352;-64
2022/08/14 03:25:32;;;;;;;18.48;16.67;;;18.70;99.90;;;-141.84;73.00;20909.44;5031096;28;20237;-63
2022/08/14 03:28:07;;;;;;;18.13;16.35;;;18.70;99.90;;;-141.84;72.87;20931.78;5030906;28;20642;-64
2022/08/14 03:30:57;;;;;;;17.92;16.35;;;18.60;99.90;;;-141.84;72.78;20915.53;5031051;28;20498;-63
2022/08/14 03:33:28;;;;;;;18.38;16.58;;;18.70;99.90;;;-141.84;72.66;20911.47;5031061;28;20194;-64
2022/08/14 03:36:11;;;;;;;17.45;15.85;;;18.70;99.90;;;-141.84;72.76;20911.47;5030675;28;20693;-65
2022/08/14 03:39:00;;;;;;;18.08;16.33;;;18.70;99.90;;;-141.84;72.57;20915.53;5031042;28;20236;-65
2022/08/14 03:41:49;;;;;;;20.20;16.25;;;18.70;99.90;;;-141.84;72.04;20915.53;5030605;28;20226;-65
2022/08/14 03:44:18;;;;;;;18.10;16.50;;;18.70;99.90;;;-141.84;72.35;20907.41;5030767;28;20276;-63
2022/08/14 03:47:08;;;;;;;16.98;15.38;;;18.80;99.90;;;-141.84;72.64;20885.03;5030478;28;20229;-64
2022/08/14 03:49:39;;;;;;;16.95;15.45;;;18.70;99.90;;;-141.84;72.29;20899.28;5030171;28;20727;-63
2022/08/14 03:52:11;;;;;;;17.15;15.55;;;18.70;99.90;;;-141.84;72.35;20909.44;5030633;28;20237;-64
2022/08/14 03:54:59;;;;;;;16.77;15.07;;;18.70;99.90;;;-141.84;72.64;20895.19;5030467;28;20204;-63
2022/08/14 03:57:31;;;;;;;17.73;16.10;;;18.70;99.90;;;-141.84;72.98;20897.25;5030901;28;20210;-63
2022/08/14 04:00:01;;;;;;;16.20;14.70;;;18.70;99.90;;;-141.84;72.61;20931.78;5030402;28;20230;-64
2022/08/14 04:02:31;;;;;;;15.70;14.30;;;18.70;99.90;;;-141.84;72.83;20929.75;5030429;28;20421;-63
2022/08/14 04:05:14;;;;;;;16.20;14.55;;;18.70;99.90;;;-141.84;73.17;20870.81;5030260;28;20229;-64
2022/08/14 04:07:45;;;;;;;17.05;15.40;;;18.70;99.90;;;-141.84;72.64;20913.50;5030647;28;20234;-65
2022/08/14 04:10:33;;;;;;;16.73;15.23;;;18.70;99.90;;;-141.84;72.49;20895.19;5030401;28;20619;-65
2022/08/14 04:13:04;;;;;;;17.10;15.40;;;18.70;99.90;;;-141.84;72.26;20933.81;5030339;28;20230;-64
2022/08/14 04:15:33;;;;;;;16.35;14.77;;;18.80;99.90;;;-141.84;71.81;20925.69;5030882;28;20617;-63
2022/08/14 04:18:23;;;;;;;16.63;15.07;;;18.80;99.90;;;-141.84;71.62;20954.16;5030233;28;20202;-64
2022/08/14 04:20:51;;;;;;;16.30;14.70;;;18.80;99.90;;;-141.84;71.99;20899.28;5030025;28;20229;-64
2022/08/14 04:23:24;;;;;;;14.75;13.38;;;18.90;99.90;;;-141.84;72.44;20907.41;5030026;28;20236;-64
2022/08/14 04:26:02;;;;;;;16.48;14.98;;;18.80;99.90;;;-141.84;71.98;20913.50;5030210;28;20638;-64
2022/08/14 04:28:30;;;;;;;15.75;14.23;;;18.90;99.90;;;-141.84;72.12;20946.03;5030343;28;20226;-64
2022/08/14 04:31:21;;;;;;;15.90;14.50;;;18.90;99.90;;;-141.84;72.08;20935.88;5030434;28;20224;-66
2022/08/14 04:34:11;;;;;;;16.23;14.73;;;18.90;99.90;;;-141.84;71.69;20950.09;5029957;28;20214;-64
2022/08/14 04:45:20;;;;;;;15.75;14.25;;;19.20;99.90;;;-141.84;69.87;21011.09;5030089;28;20214;-64
2022/08/14 04:50:40;;;;;;;15.93;14.52;;;19.30;99.90;;;-141.84;68.88;21031.41;5029973;28;20305;-64
2022/08/14 04:53:16;;;;;;;15.48;14.13;;;19.50;99.90;;;-141.84;68.95;21065.97;5029980;28;20705;-65
2022/08/14 04:55:51;;;;;;;16.35;14.85;;;19.50;99.90;;;-141.84;67.78;21094.44;5029722;28;20872;-64
2022/08/14 04:58:25;;;;;;;15.93;14.60;;;19.70;99.90;;;-141.84;66.92;21135.09;5030034;28;20229;-64
2022/08/14 05:01:04;;;;;;;15.27;13.95;;;19.80;99.90;;;-141.84;67.06;21151.34;5032588;28;20217;-64
2022/08/14 05:03:40;;;;;;;15.70;14.23;;;19.90;99.90;;;-141.84;66.57;21167.63;5034091;28;20214;-63
2022/08/14 05:06:12;;;;;;;15.98;14.55;;;20.00;99.90;;;-141.84;65.52;21200.16;5033833;28;20229;-64
2022/08/14 05:09:00;;;;;;;15.90;14.50;;;20.20;99.90;;;-141.84;64.48;21240.81;5033473;28;20226;-64
2022/08/14 05:11:32;;;;;;;16.30;14.82;;;20.40;99.90;;;-141.84;64.28;21232.69;5033402;28;20772;-63
2022/08/14 05:14:04;;;;;;;15.23;13.70;;;20.40;99.90;;;-141.84;64.47;21236.75;5033433;28;20249;-64
2022/08/14 05:16:52;;;;;;;14.13;12.93;;;20.50;99.90;;;-141.84;64.45;21216.41;5033612;28;20593;-64
2022/08/14 05:19:25;;;;;;;15.90;14.40;;;20.50;99.90;;;-141.84;64.89;21275.38;5032795;28;20229;-63
2022/08/14 05:21:58;;;;;;;15.32;13.90;;;20.50;99.90;;;-141.84;64.78;21257.09;5033747;28;20207;-63
2022/08/14 05:24:48;;;;;;;13.88;12.50;;;20.60;99.90;;;-141.84;65.45;21230.66;5033579;28;20590;-64
2022/08/14 05:27:20;;;;;;;13.48;12.07;;;20.50;99.90;;;-141.84;65.84;21228.63;5033819;28;20183;-64
2022/08/14 05:29:55;;;;;;;14.30;13.00;;;20.50;99.90;;;-141.84;65.65;21242.84;5033109;28;20325;-64
2022/08/14 05:32:25;;;;;;;14.05;12.85;;;20.60;99.90;;;-141.84;65.31;21255.03;5033081;28;20238;-64
2022/08/14 05:34:56;;;;;;;14.18;12.77;;;20.70;99.90;;;-141.84;65.13;21253.00;5033123;28;20226;-64
2022/08/14 05:37:29;;;;;;;14.60;13.30;;;20.80;99.90;;;-141.84;64.35;21273.34;5032796;28;20773;-62
2022/08/14 05:39:59;;;;;;;15.13;13.73;;;20.80;99.90;;;-141.84;64.20;21301.81;5033081;28;20194;-63
2022/08/14 05:42:28;;;;;;;15.10;13.75;;;20.90;99.90;;;-141.84;64.01;21269.28;5033138;28;20213;-63
2022/08/14 05:45:04;;;;;;;16.33;14.82;;;20.90;99.90;;;-141.84;63.85;21287.56;5032875;28;20226;-64
2022/08/14 05:47:41;;;;;;;14.85;13.55;;;20.90;99.90;;;-141.84;64.33;21305.88;5032589;28;20233;-63
2022/08/14 05:50:14;;;;;;;16.73;15.05;;;20.90;99.90;;;-141.84;63.18;21338.41;5032589;28;20254;-63
2022/08/14 05:52:49;;;;;;;15.02;13.73;;;21.10;99.90;;;-141.84;62.72;21436.00;5033043;28;20222;-65
2022/08/14 05:55:21;;;;;;;16.48;14.73;;;21.30;99.90;;;-141.84;61.85;21446.16;5032853;28;20690;-64
2022/08/14 05:57:56;;;;;;;15.70;14.30;;;21.50;99.90;;;-141.84;60.93;21480.72;5032849;28;20190;-63
2022/08/14 06:00:32;;;;;;;15.38;13.98;;;21.80;99.90;;;-141.84;61.05;21503.09;5033232;28;20190;-63
2022/08/14 06:03:15;;;;;;;15.52;14.13;;;21.90;99.90;;;-141.84;61.08;21529.53;5032426;28;20662;-63
2022/08/14 06:05:46;;;;;;;16.13;14.52;;;22.00;99.90;;;-141.84;60.89;21515.28;5032521;28;20616;-64
2022/08/14 06:08:23;;;;;;;15.00;13.70;;;22.10;99.90;;;-141.84;60.53;21586.47;5032475;28;20263;-64
2022/08/14 06:11:10;;;;;;;15.63;14.23;;;22.20;99.90;;;-141.84;59.95;21592.56;5032336;28;20230;-64
2022/08/14 06:13:47;;;;;;;14.30;13.07;;;22.30;99.90;;;-141.84;59.38;21590.53;5032411;28;20217;-64
2022/08/14 06:16:19;;;;;;;15.27;13.88;;;22.40;99.90;;;-141.84;59.55;21612.88;5032498;28;20253;-63
2022/08/14 06:18:48;;;;;;;15.68;14.30;;;22.50;99.90;;;-141.84;59.15;21619.00;5031562;28;20202;-63
2022/08/14 06:21:21;;;;;;;14.80;13.40;;;22.60;99.90;;;-141.84;59.07;21635.25;5032826;28;20205;-64
2022/08/14 06:23:51;;;;;;;14.75;13.35;;;22.70;99.90;;;-141.84;58.49;21741.00;5031984;28;20601;-64
2022/08/14 06:26:19;;;;;;;14.45;13.20;;;22.90;99.90;;;-141.84;58.35;21771.50;5032002;28;20238;-63
2022/08/14 06:28:49;;;;;;;13.27;12.18;;;23.00;99.90;;;-141.84;57.81;21761.31;5032111;28;20230;-63
2022/08/14 06:31:20;;;;;;;14.45;13.23;;;23.20;99.90;;;-141.84;57.49;21773.53;5032193;28;20230;-64
2022/08/14 06:33:49;;;;;;;13.98;12.68;;;23.30;99.90;;;-141.84;57.32;21812.16;5032091;28;20288;-63
2022/08/14 06:36:37;;;;;;;14.50;13.30;;;23.40;99.90;;;-141.84;57.20;21871.13;5032384;28;20547;-63
2022/08/14 06:39:08;;;;;;;13.40;12.20;;;23.50;99.90;;;-141.84;56.75;21875.19;5032076;28;20244;-63
2022/08/14 06:41:38;;;;;;;13.85;12.70;;;23.70;99.90;;;-141.84;57.13;21903.66;5031722;28;20304;-64
2022/08/14 06:44:27;;;;;;;14.43;13.02;;;23.70;99.90;;;-141.84;56.84;21926.03;5031901;28;20754;-63
2022/08/14 06:47:01;;;;;;;11.82;10.82;;;23.70;99.90;;;-141.84;56.60;21907.72;5031522;28;20240;-63
2022/08/14 06:49:29;;;;;;;13.07;11.90;;;23.70;99.90;;;-141.84;56.58;21952.47;5031491;28;20222;-65
2022/08/14 06:52:07;;;;;;;14.70;13.30;;;23.90;99.90;;;-141.84;56.05;21985.00;5031364;28;20221;-63
2022/08/14 06:54:37;;;;;;;12.25;11.15;;;24.00;99.90;;;-141.84;56.18;21954.50;5032129;28;20293;-64
2022/08/14 06:57:06;;;;;;;12.90;11.70;;;24.00;99.90;;;-141.84;55.62;22017.53;5031471;28;20210;-64
2022/08/14 06:59:41;;;;;;;14.32;12.88;;;24.20;99.90;;;-141.84;55.50;22046.00;5031372;28;20229;-64
2022/08/14 07:07:48;;;;;;;11.82;10.80;;;24.20;99.90;;;-141.84;56.05;21993.13;5031303;28;20253;-64
2022/08/14 07:10:21;;;;;;;13.13;11.77;;;24.20;99.90;;;-141.84;55.91;22009.41;5031177;28;20221;-64
2022/08/14 07:12:52;;;;;;;13.73;12.52;;;24.30;99.90;;;-141.84;55.69;21997.19;5031473;28;20197;-65
2022/08/14 07:15:31;;;;;;;12.75;11.70;;;24.30;99.90;;;-141.84;56.32;22007.38;5031480;28;20193;-64
2022/08/14 07:18:02;;;;;;;12.40;11.30;;;24.30;99.90;;;-141.84;56.22;22037.88;5030789;28;20248;-64
2022/08/14 07:20:35;;;;;;;12.70;11.50;;;24.30;99.90;;;-141.84;56.19;22015.50;5031032;28;20388;-64
2022/08/14 07:23:07;;;;;;;12.55;11.00;;;24.30;99.90;;;-141.84;56.23;21995.16;5030453;28;20257;-64
2022/08/14 07:25:42;;;;;;;11.52;10.52;;;24.30;99.90;;;-141.84;56.66;22001.28;5031048;28;20314;-65
2022/08/14 07:28:14;;;;;;;13.27;11.98;;;24.30;99.90;;;-141.84;56.20;22021.59;5031044;28;20309;-64
2022/08/14 07:30:48;;;;;;;12.70;11.50;;;24.30;99.90;;;-141.84;56.54;22019.56;5030912;28;20642;-64
2022/08/14 07:33:19;;;;;;;12.38;11.35;;;24.40;99.90;;;-141.84;55.99;22062.28;5031020;28;20669;-63
2022/08/14 07:35:59;;;;;;;12.32;11.23;;;24.40;99.90;;;-141.84;55.99;22033.81;5030861;28;20731;-63
2022/08/14 07:38:29;;;;;;;11.98;11.00;;;24.40;99.90;;;-141.84;55.84;22064.31;5030740;28;20782;-64
2022/08/14 07:41:07;;;;;;;12.15;11.05;;;24.50;99.90;;;-141.84;56.08;22052.09;5030822;28;20237;-63
2022/08/14 07:43:44;;;;;;;12.18;11.18;;;24.50;99.90;;;-141.84;55.13;22107.00;5030662;28;20233;-64
2022/08/14 07:46:22;;;;;;;12.05;10.95;;;24.60;99.90;;;-141.84;55.07;22131.41;5030972;28;20234;-63
2022/08/14 07:48:56;;;;;;;12.38;11.38;;;24.70;99.90;;;-141.84;55.08;22123.28;5030583;28;20236;-63
2022/08/14 07:51:25;;;;;;;12.57;11.45;;;24.70;99.90;;;-141.84;54.81;22182.25;5032179;28;20610;-63
2022/08/14 07:54:06;;;;;;;12.45;11.38;;;24.80;99.90;;;-141.84;54.58;22163.94;5031246;28;20222;-63
2022/08/14 07:56:41;;;;;;;11.35;10.30;;;24.90;99.90;;;-141.84;54.50;22182.25;5031313;28;20230;-64
2022/08/14 07:59:16;;;;;;;12.63;11.43;;;24.90;99.90;;;-141.84;54.17;22182.25;5031325;28;20225;-63
2022/08/14 08:01:46;;;;;;;11.55;10.45;;;25.00;99.90;;;-141.84;54.26;22237.16;5031518;28;20230;-64
2022/08/14 08:04:24;;;;;;;12.00;10.90;;;25.00;99.90;;;-141.84;53.31;22271.72;5030904;28;20226;-64
2022/08/14 08:06:55;;;;;;;12.07;10.88;;;25.20;99.90;;;-141.84;53.16;22241.22;5031127;28;20642;-64
2022/08/14 08:09:28;;;;;;;11.50;10.40;;;25.20;99.90;;;-141.84;53.33;22241.22;5031111;28;20627;-64
2022/08/14 08:12:04;;;;;;;12.07;10.98;;;25.20;99.90;;;-141.84;53.08;22255.47;5030492;28;20229;-65
2022/08/14 08:14:43;;;;;;;12.15;11.00;;;25.20;99.90;;;-141.84;52.82;22249.38;5030035;28;20648;-63
2022/08/14 08:17:31;;;;;;;11.45;10.35;;;25.20;99.90;;;-141.84;53.02;22231.06;5030140;28;20232;-64
2022/08/14 08:20:09;;;;;;;11.43;10.43;;;25.10;99.90;;;-141.84;52.12;22263.59;5029699;28;20248;-64
2022/08/14 08:22:39;;;;;;;10.93;10.02;;;25.20;99.90;;;-141.84;52.34;22294.09;5030133;28;20693;-63
2022/08/14 08:25:11;;;;;;;12.07;10.88;;;25.20;99.90;;;-141.84;51.98;22314.44;5029918;28;20230;-63
2022/08/14 08:27:42;;;;;;;10.88;9.80;;;25.40;99.90;;;-141.84;52.05;22330.72;5032228;28;20217;-63
2022/08/14 08:30:13;;;;;;;10.63;9.63;;;25.40;99.90;;;-141.84;52.28;22306.31;5031622;28;20586;-63
2022/08/14 08:32:44;;;;;;;11.20;10.10;;;25.50;99.90;;;-141.84;51.54;22383.59;5030768;28;20230;-63
2022/08/14 08:35:19;;;;;;;10.88;9.88;;;25.60;99.90;;;-141.84;51.50;22373.41;5034124;28;20221;-64
2022/08/14 08:37:48;;;;;;;11.55;10.65;;;25.60;99.90;;;-141.84;50.75;22405.97;5035117;28;20239;-63
2022/08/14 08:40:35;;;;;;;11.07;10.07;;;25.70;99.90;;;-141.84;50.55;22420.19;5035074;28;20241;-63
2022/08/14 08:43:20;;;;;;;10.80;9.90;;;25.80;99.90;;;-141.84;50.78;22428.31;5035258;28;20296;-65
2022/08/14 08:45:56;;;;;;;11.20;10.20;;;25.80;99.90;;;-141.84;50.86;22458.84;5034554;28;20210;-63
2022/08/14 08:48:27;;;;;;;10.80;9.90;;;25.80;99.90;;;-141.84;51.09;22460.88;5034952;28;20194;-64
2022/08/14 08:51:05;;;;;;;11.45;10.45;;;26.00;99.90;;;-141.84;49.88;22538.16;5022863;28;20344;-64
2022/08/14 08:53:35;;;;;;;11.00;10.10;;;26.10;99.90;;;-141.84;49.95;22523.91;5014838;28;20603;-64
2022/08/14 08:56:04;;;;;;;10.70;9.80;;;26.10;99.90;;;-141.84;49.46;22593.06;5014759;28;20234;-64
2022/08/14 08:58:38;;;;;;;10.82;9.82;;;26.20;99.90;;;-141.84;49.19;22599.16;5014756;28;20222;-64
2022/08/14 09:01:06;;;;;;;10.38;9.45;;;26.40;99.90;;;-141.84;49.28;22621.53;5014782;28;20251;-63
2022/08/14 09:03:35;;;;;;;10.85;9.88;;;26.40;99.90;;;-141.84;49.01;22603.22;5014850;28;20230;-64
2022/08/14 09:06:11;;;;;;;10.98;10.07;;;26.60;99.90;;;-141.84;49.02;22633.75;5014802;28;20234;-64
2022/08/14 09:08:59;;;;;;;10.48;9.57;;;26.60;99.90;;;-141.84;48.64;22662.22;4995763;28;20297;-64
2022/08/14 09:11:28;;;;;;;9.95;9.05;;;26.70;99.90;;;-141.84;48.55;22711.03;4994651;28;20254;-64
2022/08/14 09:13:59;;;;;;;10.93;10.02;;;26.70;99.90;;;-141.84;48.41;22702.88;4994911;28;20322;-64
2022/08/14 09:16:27;;;;;;;11.98;10.80;;;26.80;99.90;;;-141.84;48.45;22709.00;4994779;28;20266;-64
2022/08/14 09:18:55;;;;;;;11.68;10.63;;;26.90;99.90;;;-141.84;48.39;22719.16;4994230;28;20559;-64
2022/08/14 09:21:24;;;;;;;11.10;10.20;;;26.90;99.90;;;-141.84;48.57;22713.06;4995262;28;20261;-64
2022/08/14 09:23:59;;;;;;;10.40;9.50;;;26.80;99.90;;;-141.84;47.72;22757.81;4994598;28;20223;-63
2022/08/14 09:26:48;;;;;;;10.45;9.55;;;26.90;99.90;;;-141.84;47.95;22725.25;4994381;28;20227;-63
2022/08/14 09:29:19;;;;;;;10.57;9.77;;;26.90;99.90;;;-141.84;48.12;22725.25;4994781;28;20231;-63
2022/08/14 09:31:56;;;;;;;11.43;10.52;;;26.90;99.90;;;-141.84;48.05;22753.75;4994007;28;20231;-63
2022/08/14 09:34:49;;;;;;;11.90;10.80;;;27.00;99.90;;;-141.84;48.33;22759.84;4994245;28;20230;-64
2022/08/14 09:37:42;;;;;;;10.57;9.77;;;27.00;99.90;;;-141.84;47.97;22804.59;4994242;28;20257;-62
2022/08/14 09:40:27;;;;;;;11.18;10.18;;;27.00;99.90;;;-141.84;47.15;22794.41;5002245;28;20245;-63
2022/08/14 09:43:15;;;;;;;10.75;9.75;;;27.10;99.90;;;-141.84;47.30;22826.97;5013982;28;20202;-61
2022/08/14 09:45:51;;;;;;;10.73;9.82;;;27.20;99.90;;;-141.84;46.86;22871.72;5013002;28;20253;-60
2022/08/14 09:48:22;;;;;;;9.57;8.82;;;27.30;99.90;;;-141.84;46.91;22883.91;5013763;28;20230;-64
2022/08/14 09:51:00;;;;;;;9.95;9.05;;;27.40;99.90;;;-141.84;46.56;22869.66;5002889;28;20609;-60
2022/08/14 09:53:40;;;;;;;9.68;8.73;;;27.40;99.90;;;-141.84;46.26;22928.66;4994016;28;20289;-63
2022/08/14 09:56:29;;;;;;;9.93;9.05;;;27.50;99.90;;;-141.84;45.72;22949.00;4993520;28;20234;-62
2022/08/14 09:59:13;;;;;;;10.00;9.00;;;27.50;99.90;;;-141.84;46.19;22904.25;4993974;28;20319;-64
2022/08/14 10:01:45;;;;;;;9.43;8.63;;;27.50;99.90;;;-141.84;46.22;22912.38;4993867;28;20384;-62
2022/08/14 10:04:23;;;;;;;9.20;8.50;;;27.40;99.90;;;-141.84;46.25;22883.91;4993542;28;20219;-66
2022/08/14 10:07:03;;;;;;;9.40;8.60;;;27.40;99.90;;;-141.84;45.91;22924.59;4993804;28;20231;-64
2022/08/14 10:09:32;;;;;;;9.80;8.93;;;27.40;99.90;;;-141.84;45.48;22936.78;4994383;28;20214;-63
2022/08/14 10:12:05;;;;;;;9.45;8.65;;;27.60;99.90;;;-141.84;45.62;22942.91;4993411;28;20230;-62
2022/08/14 10:14:46;;;;;;;10.00;9.00;;;27.60;99.90;;;-141.84;45.15;22951.03;4993761;28;20253;-62
2022/08/14 10:17:25;;;;;;;9.93;9.10;;;27.70;99.90;;;-141.84;44.66;23001.88;4993337;28;20261;-61
2022/08/14 10:19:56;;;;;;;9.63;8.73;;;27.70;99.90;;;-141.84;44.95;22973.41;4992934;28;20750;-68
2022/08/14 10:22:29;;;;;;;9.43;8.52;;;27.80;99.90;;;-141.84;44.80;22997.81;4993513;28;20227;-64
2022/08/14 10:25:18;;;;;;;10.10;9.20;;;27.70;99.90;;;-141.84;44.39;23026.28;4993340;28;20729;-69
2022/08/14 10:27:58;;;;;;;9.63;8.68;;;27.80;99.90;;;-141.84;43.74;23095.44;4993365;28;20294;-66
2022/08/14 10:30:36;;;;;;;9.50;8.65;;;28.00;99.90;;;-141.84;43.37;23146.28;4993958;28;20211;-62
2022/08/14 10:33:06;;;;;;;8.85;8.05;;;28.10;99.90;;;-141.84;42.75;23136.13;4992908;28;20314;-63
2022/08/14 10:35:43;;;;;;;9.35;8.50;;;28.20;99.90;;;-141.84;42.71;23172.75;4993160;28;20269;-64
2022/08/14 10:38:26;;;;;;;9.18;8.40;;;28.20;99.90;;;-141.84;42.83;23117.81;4993303;28;20281;-63
2022/08/14 10:40:55;;;;;;;9.55;8.73;;;28.20;99.90;;;-141.84;42.64;23115.78;4993149;28;20714;-66
2022/08/14 10:43:29;;;;;;;9.40;8.60;;;28.20;99.90;;;-141.84;42.70;23162.56;4993282;28;20230;-67
2022/08/14 10:46:00;;;;;;;9.43;8.63;;;28.30;99.90;;;-141.84;42.29;23233.75;4993121;28;20286;-66
2022/08/14 10:49:02;;;;;;;9.20;8.45;;;28.50;99.90;;;-141.84;41.44;23266.31;4992870;28;20564;-65
2022/08/14 10:51:34;;;;;;;9.27;8.48;;;28.60;99.90;;;-141.84;40.99;23317.16;4993326;28;20203;-61
2022/08/14 10:54:10;;;;;;;8.63;7.93;;;28.70;99.90;;;-141.84;41.36;23274.44;4993327;28;20203;-61
2022/08/14 10:57:12;;;;;;;9.02;8.38;;;28.70;99.90;;;-141.84;41.12;23294.78;5010841;28;20655;-72